Back to top

Sheridan, WY weather

Sheridan County Airport, Sheridan, WY: 1/20/2020 05:53
Visibility10 statute milesclear sky
View 7-Day Forecast
Area Summary
Sky/CloudsSky Clear
Weather [last 24 hours]None
Pressure30.26 in.Hg (1025 hPa)
Dew Point7 °F (-13.9 °C)
Relative Humidity 73 %
Temperature14 °F (-10 °C)blue thermometer
Wind Chill8.15 °F (-13.3 °C)
Reading TimeMinimum to Maximum Temperature
6-hr ending 1/20@04:5310 °F to 19 °F (-12.2 °C to -7.2 °C)
6-hr ending 1/19@22:5314 °F to 28.9 °F (-10 °C to -1.7 °C)
6-hr ending 1/19@16:5328 °F to 43 °F (-2.2 °C to 6.1 °C)
6-hr ending 1/19@10:5312 °F to 35.1 °F (-11.1 °C to 1.7 °C)
24-hr ending 1/19@23:537 °F to 43 °F (-13.9 °C to 6.1 °C)
Wind3.45 MPH (3 KT) green arrow pointing 337.5 degrees
Wind FromNorth/Northwest (340 Degrees)
Twilight Begins07:04Sunshine Yesterday
Sunrise07:36N/A
Sunset17:02
Twilight Ends17:34
METARKSHR 201253Z AUTO 34003KT 10SM CLR M10/M14 A3026 RMK AO2 SLP304 T11001139
Tags: